KPHX

Phoenix Sky Harbor International Airport

Phoenix, Arizona, USA
METAR KPHX 151851Z 14004KT 10SM FEW035 FEW070 BKN250 19/11 A2998 RMK AO2 SLP144 T01890106
Observed Flight Rules
Feb-15 @ 18:51 UTC (17 minutes ago) Visual Flight Rules
Wind Visibility Clouds
140° at 4 knots 10 miles
  • Few at 3,500' AGL
  • Few at 7,000' AGL
  • Broken at 25,000' AGL
Temperatures Readings
Current 19°C / 66°F
Dewpoint 11°C / 52°F
Humidity 60%
Altimeter 29.98" Hg
Pressure 1014.4 hPa
Elevation 336
METAR KPHX 151851Z 14004KT 10SM FEW035 FEW070 BKN250 19/11 A2998 RMK AO2 SLP144 T01890106
Observed Flight Rules
Feb-15 @ 18:51 UTC
(17 minutes ago)
VFR
Wind Visibility
140° at 4 knots 10 miles
Clouds
  • Few at 3,500' AGL
  • Few at 7,000' AGL
  • Broken at 25,000' AGL
Temperature Dewpoint
19°C / 66°F 11°C / 52°F
Humidity Altimeter Pressure
60% 29.98" Hg 1014.4 hPa